Time;durP1;ratioP1;P1;durP2;ratioP2;P2;SDS_P1;SDS_P2;PMS_P1;PMS_P2;Temp;Humidity;BMP_temperature;BMP_pressure;BME280_temperature;BME280_humidity;BME280_pressure;Samples;Min_cycle;Max_cycle;Signal;HPM_P1;HPM_P2
2022/01/20 00:00:14;;;;;;;;;;;20.90;35.20;;;;;;674639;29;1223;-80
2022/01/20 00:00:44;;;;;;;;;;;20.90;35.10;;;;;;674104;29;1925;-82
2022/01/20 00:01:59;;;;;;;;;;;20.90;35.10;;;;;;674262;29;1299;-81
2022/01/20 00:02:20;;;;;;;;;;;20.90;35.10;;;;;;674155;29;1282;-81
2022/01/20 00:02:41;;;;;;;;;;;20.90;35.10;;;;;;674016;29;1231;-83
2022/01/20 00:03:11;;;;;;;;;;;20.90;35.20;;;;;;671653;29;1263;-82
2022/01/20 00:03:34;;;;;;;;;;;20.90;35.10;;;;;;671680;29;1317;-83
2022/01/20 00:03:55;;;;;;;;;;;20.90;35.20;;;;;;671834;29;1426;-78
2022/01/20 00:04:21;;;;;;;;;;;20.90;35.10;;;;;;671604;29;1232;-79
2022/01/20 00:04:49;;;;;;;;;;;20.90;35.10;;;;;;671515;29;1364;-78
2022/01/20 00:07:41;;;;;;;;;;;20.90;35.30;;;;;;674071;29;1287;-83
2022/01/20 00:09:29;;;;;;;;;;;20.90;35.30;;;;;;673980;29;1183;-82
2022/01/20 00:23:08;;;;;;;;;;;20.90;35.30;;;;;;673746;29;1579;-82
2022/01/20 00:26:15;;;;;;;;;;;20.90;35.40;;;;;;676893;29;1215;-81
2022/01/20 00:26:45;;;;;;;;;;;20.90;35.50;;;;;;677027;29;1223;-82
2022/01/20 00:27:09;;;;;;;;;;;20.90;35.50;;;;;;676746;29;1186;-84
2022/01/20 00:27:33;;;;;;;;;;;20.90;35.60;;;;;;674107;29;1240;-81
2022/01/20 00:28:03;;;;;;;;;;;20.90;35.50;;;;;;674579;29;1205;-84
2022/01/20 00:28:44;;;;;;;;;;;20.90;35.50;;;;;;674716;29;1271;-82
2022/01/20 00:29:08;;;;;;;;;;;20.90;35.50;;;;;;671015;29;1279;-83
2022/01/20 00:29:31;;;;;;;;;;;20.90;35.50;;;;;;673955;29;1255;-81
2022/01/20 00:31:02;;;;;;;;;;;20.90;35.50;;;;;;674885;29;1233;-80
2022/01/20 00:31:37;;;;;;;;;;;20.90;35.50;;;;;;676851;29;1214;-81
2022/01/20 00:32:10;;;;;;;;;;;20.90;35.50;;;;;;676873;29;1172;-82
2022/01/20 00:34:10;;;;;;;;;;;20.90;35.50;;;;;;675001;29;1374;-82
2022/01/20 00:34:53;;;;;;;;;;;20.90;35.50;;;;;;674763;29;1271;-83
2022/01/20 00:37:15;;;;;;;;;;;20.90;35.40;;;;;;674409;29;1199;-81
2022/01/20 00:37:16;;;;;;;;;;;20.90;35.30;;;;;;675100;29;1337;-81
2022/01/20 00:37:36;;;;;;;;;;;20.90;35.30;;;;;;674538;29;1258;-82
2022/01/20 00:37:57;;;;;;;;;;;20.90;35.30;;;;;;675300;29;1261;-83
2022/01/20 00:38:18;;;;;;;;;;;20.90;36.30;;;;;;674847;29;1398;-84
2022/01/20 00:38:39;;;;;;;;;;;20.90;35.20;;;;;;674668;29;1278;-83
2022/01/20 00:38:59;;;;;;;;;;;20.90;35.20;;;;;;677988;29;1226;-82
2022/01/20 00:39:20;;;;;;;;;;;20.90;35.20;;;;;;677738;29;1461;-84
2022/01/20 00:39:40;;;;;;;;;;;20.90;35.20;;;;;;677470;29;1395;-83
2022/01/20 00:40:02;;;;;;;;;;;20.90;35.30;;;;;;678148;29;1225;-82
2022/01/20 00:40:24;;;;;;;;;;;20.80;35.20;;;;;;677612;29;1500;-83
2022/01/20 00:40:44;;;;;;;;;;;20.90;35.30;;;;;;677947;29;1502;-83
2022/01/20 00:41:07;;;;;;;;;;;20.90;35.30;;;;;;677575;29;1407;-83
2022/01/20 00:41:27;;;;;;;;;;;20.90;35.40;;;;;;677416;29;1532;-82
2022/01/20 00:41:48;;;;;;;;;;;20.80;35.20;;;;;;678084;29;1198;-81
2022/01/20 00:42:09;;;;;;;;;;;20.90;35.20;;;;;;677476;29;1673;-83
2022/01/20 00:42:29;;;;;;;;;;;20.90;35.30;;;;;;677545;29;1332;-82
2022/01/20 00:42:50;;;;;;;;;;;20.80;35.20;;;;;;678402;29;1376;-81
2022/01/20 00:43:11;;;;;;;;;;;20.80;35.20;;;;;;675419;29;1389;-82
2022/01/20 00:43:31;;;;;;;;;;;20.80;35.30;;;;;;673954;29;1277;-81
2022/01/20 00:43:52;;;;;;;;;;;20.90;35.40;;;;;;674244;29;1243;-82
2022/01/20 00:44:12;;;;;;;;;;;20.90;35.30;;;;;;674371;29;1283;-81
2022/01/20 00:44:33;;;;;;;;;;;20.80;35.30;;;;;;674190;29;1239;-84
2022/01/20 00:44:53;;;;;;;;;;;20.90;35.50;;;;;;674510;29;1583;-83
2022/01/20 00:45:15;;;;;;;;;;;20.80;35.50;;;;;;677338;29;1219;-84
2022/01/20 00:45:35;;;;;;;;;;;20.80;35.30;;;;;;677638;29;1236;-84
2022/01/20 00:45:56;;;;;;;;;;;20.90;35.30;;;;;;677979;29;1544;-81
2022/01/20 00:46:16;;;;;;;;;;;20.80;35.20;;;;;;677876;29;1397;-81
2022/01/20 00:46:37;;;;;;;;;;;20.80;35.30;;;;;;678016;29;1238;-82
2022/01/20 00:46:57;;;;;;;;;;;20.80;35.30;;;;;;678252;29;1273;-81
2022/01/20 00:47:18;;;;;;;;;;;20.80;35.20;;;;;;678252;29;1447;-83
2022/01/20 00:47:39;;;;;;;;;;;20.80;35.30;;;;;;677604;29;1246;-84
2022/01/20 00:48:00;;;;;;;;;;;20.80;35.30;;;;;;678311;29;1438;-82
2022/01/20 00:48:21;;;;;;;;;;;20.80;35.30;;;;;;678202;29;1289;-83
2022/01/20 00:48:42;;;;;;;;;;;20.90;35.40;;;;;;677938;29;1294;-82
2022/01/20 00:49:02;;;;;;;;;;;20.90;35.40;;;;;;677668;29;1325;-81
2022/01/20 00:49:23;;;;;;;;;;;20.80;35.40;;;;;;678076;29;1354;-82
2022/01/20 00:49:44;;;;;;;;;;;20.80;35.30;;;;;;677949;29;1211;-83
2022/01/20 00:50:07;;;;;;;;;;;20.80;35.40;;;;;;678139;29;1242;-83
2022/01/20 00:50:27;;;;;;;;;;;20.80;35.40;;;;;;678266;29;1378;-83
2022/01/20 00:50:48;;;;;;;;;;;20.80;35.30;;;;;;676929;29;1286;-82
2022/01/20 00:51:09;;;;;;;;;;;20.80;35.40;;;;;;676949;29;1235;-85
2022/01/20 00:51:29;;;;;;;;;;;20.80;35.40;;;;;;676492;29;1474;-79
2022/01/20 00:51:50;;;;;;;;;;;20.80;35.40;;;;;;676766;29;1368;-83
2022/01/20 00:52:11;;;;;;;;;;;20.80;35.30;;;;;;676842;29;1137;-82
2022/01/20 00:52:31;;;;;;;;;;;20.80;35.30;;;;;;676821;29;1466;-82
2022/01/20 00:52:52;;;;;;;;;;;20.80;35.40;;;;;;677746;29;1403;-82
2022/01/20 00:53:13;;;;;;;;;;;20.80;35.40;;;;;;678508;29;1232;-84
2022/01/20 00:53:33;;;;;;;;;;;20.80;35.40;;;;;;677984;29;1526;-81
2022/01/20 00:53:54;;;;;;;;;;;20.80;35.30;;;;;;675224;29;1449;-83
2022/01/20 00:54:15;;;;;;;;;;;20.80;35.40;;;;;;672904;29;1329;-81
2022/01/20 00:54:35;;;;;;;;;;;20.80;35.30;;;;;;672756;29;1486;-82
2022/01/20 00:54:56;;;;;;;;;;;20.80;35.30;;;;;;672565;29;1297;-84
2022/01/20 00:55:16;;;;;;;;;;;20.80;35.30;;;;;;673226;29;1231;-83
2022/01/20 00:55:37;;;;;;;;;;;20.80;35.40;;;;;;673001;29;1510;-81
2022/01/20 00:55:58;;;;;;;;;;;20.80;35.40;;;;;;675226;29;1306;-85
2022/01/20 00:56:18;;;;;;;;;;;20.80;35.50;;;;;;678362;29;1230;-83
2022/01/20 00:56:39;;;;;;;;;;;20.80;35.50;;;;;;678059;29;1965;-82
2022/01/20 00:57:03;;;;;;;;;;;20.80;35.40;;;;;;677709;29;1368;-83
2022/01/20 00:57:23;;;;;;;;;;;20.80;35.50;;;;;;676405;29;1374;-82
2022/01/20 00:57:44;;;;;;;;;;;20.80;35.40;;;;;;674416;29;1467;-80
2022/01/20 00:58:04;;;;;;;;;;;20.80;35.40;;;;;;672276;29;1300;-82
2022/01/20 00:58:25;;;;;;;;;;;20.80;35.50;;;;;;671922;29;1405;-82
2022/01/20 00:58:45;;;;;;;;;;;20.80;35.50;;;;;;671927;29;1225;-82
2022/01/20 00:59:06;;;;;;;;;;;20.80;35.60;;;;;;668934;29;1449;-82
2022/01/20 00:59:29;;;;;;;;;;;20.80;35.40;;;;;;670062;29;1542;-84
2022/01/20 00:59:50;;;;;;;;;;;20.80;35.40;;;;;;673452;29;1458;-83
2022/01/20 01:00:11;;;;;;;;;;;20.80;35.50;;;;;;673770;29;1408;-80
2022/01/20 01:00:32;;;;;;;;;;;20.80;35.40;;;;;;675467;29;1358;-81
2022/01/20 01:00:53;;;;;;;;;;;20.80;35.50;;;;;;675950;29;1393;-84
2022/01/20 01:01:14;;;;;;;;;;;20.80;35.60;;;;;;675556;29;1227;-84
2022/01/20 01:01:34;;;;;;;;;;;20.80;35.60;;;;;;675764;29;1406;-82
2022/01/20 01:01:56;;;;;;;;;;;20.80;35.50;;;;;;676631;29;1329;-82
2022/01/20 01:02:16;;;;;;;;;;;20.80;35.50;;;;;;677502;29;1406;-83
2022/01/20 01:02:37;;;;;;;;;;;20.80;35.50;;;;;;677414;29;1662;-83
2022/01/20 01:02:57;;;;;;;;;;;20.80;35.40;;;;;;677343;29;1407;-84
2022/01/20 01:03:18;;;;;;;;;;;20.80;35.40;;;;;;680473;29;1190;-82
2022/01/20 01:03:39;;;;;;;;;;;20.80;35.40;;;;;;676581;29;1502;-84
2022/01/20 01:03:59;;;;;;;;;;;20.80;35.40;;;;;;677411;29;1368;-83
2022/01/20 01:04:20;;;;;;;;;;;20.80;35.40;;;;;;678463;29;1230;-83
2022/01/20 01:04:41;;;;;;;;;;;20.80;35.40;;;;;;678074;29;1504;-85
2022/01/20 01:05:02;;;;;;;;;;;20.80;35.50;;;;;;675230;29;1333;-85
2022/01/20 01:05:24;;;;;;;;;;;20.80;35.40;;;;;;676705;29;1313;-84
2022/01/20 01:06:02;;;;;;;;;;;20.80;35.30;;;;;;678489;29;1203;-81
2022/01/20 01:07:51;;;;;;;;;;;20.80;35.50;;;;;;681098;28;1324;-81
2022/01/20 01:08:11;;;;;;;;;;;20.80;35.50;;;;;;680967;28;1163;-82
2022/01/20 01:08:32;;;;;;;;;;;20.80;35.50;;;;;;680851;28;1526;-83
2022/01/20 01:08:53;;;;;;;;;;;20.80;35.50;;;;;;680923;28;1280;-84
2022/01/20 01:09:13;;;;;;;;;;;20.80;35.50;;;;;;678871;29;1282;-83
2022/01/20 01:09:35;;;;;;;;;;;20.80;35.50;;;;;;678464;29;1489;-83
2022/01/20 01:09:55;;;;;;;;;;;20.80;35.50;;;;;;678535;29;1321;-83
2022/01/20 01:10:18;;;;;;;;;;;20.80;35.50;;;;;;678814;29;1230;-84
2022/01/20 01:10:39;;;;;;;;;;;20.80;35.50;;;;;;678522;29;1580;-84
2022/01/20 01:11:00;;;;;;;;;;;20.80;35.50;;;;;;679064;28;1222;-83
2022/01/20 01:11:22;;;;;;;;;;;20.80;35.50;;;;;;682289;28;1545;-82
2022/01/20 01:11:45;;;;;;;;;;;20.80;35.50;;;;;;685710;28;1110;-82
2022/01/20 01:12:09;;;;;;;;;;;20.80;35.50;;;;;;686559;28;1317;-84
2022/01/20 01:12:38;;;;;;;;;;;20.80;35.50;;;;;;685801;28;1264;-83
2022/01/20 01:13:07;;;;;;;;;;;20.80;35.50;;;;;;685986;28;1244;-81
2022/01/20 01:13:29;;;;;;;;;;;20.80;35.50;;;;;;686806;28;1243;-83
2022/01/20 01:13:51;;;;;;;;;;;20.80;35.50;;;;;;687289;28;1504;-80
2022/01/20 01:14:13;;;;;;;;;;;20.80;35.50;;;;;;688002;28;1466;-79
2022/01/20 01:14:34;;;;;;;;;;;20.80;35.40;;;;;;687082;28;1295;-83
2022/01/20 01:14:55;;;;;;;;;;;20.80;35.40;;;;;;687435;28;1157;-82
2022/01/20 01:15:29;;;;;;;;;;;20.80;35.40;;;;;;687644;28;1069;-83
2022/01/20 01:15:51;;;;;;;;;;;20.80;35.40;;;;;;682658;28;1401;-82
2022/01/20 01:16:13;;;;;;;;;;;20.80;35.40;;;;;;684418;28;1154;-83
2022/01/20 01:20:00;;;;;;;;;;;20.80;35.30;;;;;;683201;28;1465;-81
2022/01/20 01:20:16;;;;;;;;;;;20.70;35.40;;;;;;686907;28;1492;-83
2022/01/20 01:21:28;;;;;;;;;;;20.70;35.40;;;;;;687772;28;1177;-82
2022/01/20 01:21:43;;;;;;;;;;;20.70;35.40;;;;;;681110;28;1267;-82
2022/01/20 01:22:21;;;;;;;;;;;20.70;35.40;;;;;;686440;28;1219;-81
2022/01/20 01:22:41;;;;;;;;;;;20.70;35.40;;;;;;687241;28;1176;-81
2022/01/20 01:23:02;;;;;;;;;;;20.70;35.40;;;;;;687827;28;1548;-83
2022/01/20 01:23:23;;;;;;;;;;;20.70;36.50;;;;;;686303;28;1389;-82
2022/01/20 01:23:44;;;;;;;;;;;20.70;35.50;;;;;;686751;28;1207;-84
2022/01/20 01:24:05;;;;;;;;;;;20.70;35.40;;;;;;686644;28;1763;-82
2022/01/20 01:24:26;;;;;;;;;;;20.70;35.40;;;;;;687316;28;1192;-83
2022/01/20 01:24:52;;;;;;;;;;;20.70;35.50;;;;;;686313;28;1311;-81
2022/01/20 01:25:14;;;;;;;;;;;20.70;35.50;;;;;;688011;28;1181;-82
2022/01/20 01:25:35;;;;;;;;;;;20.70;35.40;;;;;;688477;28;1228;-83
2022/01/20 01:25:56;;;;;;;;;;;20.70;35.40;;;;;;685882;28;1453;-82
2022/01/20 01:26:18;;;;;;;;;;;20.70;35.40;;;;;;685640;28;1426;-83
2022/01/20 01:26:38;;;;;;;;;;;20.70;35.40;;;;;;679277;29;1597;-83
2022/01/20 01:27:00;;;;;;;;;;;20.70;35.40;;;;;;679732;29;1285;-79
2022/01/20 01:27:22;;;;;;;;;;;20.70;35.40;;;;;;680529;29;1130;-81
2022/01/20 01:27:44;;;;;;;;;;;20.70;35.60;;;;;;681590;28;1322;-82
2022/01/20 01:28:05;;;;;;;;;;;20.70;35.50;;;;;;683565;28;1205;-82
2022/01/20 01:28:29;;;;;;;;;;;20.70;35.50;;;;;;684880;28;1356;-83
2022/01/20 01:28:57;;;;;;;;;;;20.70;35.40;;;;;;687024;28;1542;-83
2022/01/20 01:29:38;;;;;;;;;;;20.70;35.50;;;;;;688036;28;1212;-84
2022/01/20 01:30:57;;;;;;;;;;;20.70;35.40;;;;;;688615;28;1518;-83
2022/01/20 01:31:33;;;;;;;;;;;20.70;35.50;;;;;;687742;28;1881;-84
2022/01/20 01:31:53;;;;;;;;;;;20.70;35.50;;;;;;689516;28;1188;-85
2022/01/20 01:32:17;;;;;;;;;;;20.70;35.40;;;;;;687799;28;1287;-80
2022/01/20 01:32:47;;;;;;;;;;;20.70;35.40;;;;;;686744;28;1390;-80
2022/01/20 01:33:10;;;;;;;;;;;20.70;35.40;;;;;;686771;28;1309;-80
2022/01/20 01:33:35;;;;;;;;;;;20.70;35.50;;;;;;686994;28;1265;-82
2022/01/20 01:34:06;;;;;;;;;;;20.70;35.50;;;;;;688164;28;1523;-79
2022/01/20 01:34:30;;;;;;;;;;;20.70;35.50;;;;;;689571;28;1330;-81
2022/01/20 01:34:53;;;;;;;;;;;20.70;35.50;;;;;;689285;28;1212;-81
2022/01/20 01:35:14;;;;;;;;;;;20.70;35.50;;;;;;690171;28;1283;-82
2022/01/20 01:35:39;;;;;;;;;;;20.70;35.50;;;;;;687693;28;945;-80
2022/01/20 01:36:02;;;;;;;;;;;20.70;35.50;;;;;;688605;28;1437;-77
2022/01/20 01:36:24;;;;;;;;;;;20.70;35.60;;;;;;688393;28;1829;-80
2022/01/20 01:37:06;;;;;;;;;;;20.70;35.40;;;;;;688523;28;1947;-79
2022/01/20 01:38:44;;;;;;;;;;;20.70;35.50;;;;;;685409;28;1407;-84
2022/01/20 01:39:04;;;;;;;;;;;20.70;35.50;;;;;;685025;28;1318;-81
2022/01/20 01:39:25;;;;;;;;;;;20.70;35.40;;;;;;687747;28;1184;-82
2022/01/20 01:39:45;;;;;;;;;;;20.70;35.40;;;;;;687034;28;1328;-82
2022/01/20 01:40:07;;;;;;;;;;;20.70;35.50;;;;;;686927;28;1263;-83
2022/01/20 01:40:29;;;;;;;;;;;20.70;35.40;;;;;;683881;28;1708;-79
2022/01/20 01:40:50;;;;;;;;;;;20.70;35.60;;;;;;683133;28;1195;-79
2022/01/20 01:41:16;;;;;;;;;;;20.70;35.50;;;;;;682495;28;1185;-81
2022/01/20 01:41:38;;;;;;;;;;;20.70;35.50;;;;;;682944;28;1303;-82
2022/01/20 01:41:59;;;;;;;;;;;20.70;35.50;;;;;;682608;28;1568;-82
2022/01/20 01:42:26;;;;;;;;;;;20.70;35.50;;;;;;683422;28;1282;-79
2022/01/20 01:42:49;;;;;;;;;;;20.70;35.40;;;;;;684302;28;1185;-81
2022/01/20 01:43:18;;;;;;;;;;;20.70;35.50;;;;;;685111;28;1209;-81
2022/01/20 01:43:41;;;;;;;;;;;20.70;36.10;;;;;;684236;28;1384;-81
2022/01/20 01:44:06;;;;;;;;;;;20.70;35.40;;;;;;686044;28;1208;-82
2022/01/20 01:44:30;;;;;;;;;;;20.60;35.30;;;;;;682941;28;1270;-81
2022/01/20 01:44:52;;;;;;;;;;;20.70;35.40;;;;;;680828;28;1204;-80
2022/01/20 01:45:23;;;;;;;;;;;20.70;35.40;;;;;;681080;28;1570;-83
2022/01/20 01:45:44;;;;;;;;;;;20.70;35.40;;;;;;680478;28;1517;-78
2022/01/20 01:46:05;;;;;;;;;;;20.70;35.50;;;;;;678817;29;1461;-80
2022/01/20 01:46:25;;;;;;;;;;;20.70;35.50;;;;;;682144;28;1395;-80
2022/01/20 01:46:46;;;;;;;;;;;20.70;35.50;;;;;;684360;28;1201;-81
2022/01/20 01:47:06;;;;;;;;;;;20.70;35.40;;;;;;684637;28;1435;-82
2022/01/20 01:47:27;;;;;;;;;;;20.70;35.30;;;;;;684872;28;1303;-79
2022/01/20 01:47:48;;;;;;;;;;;20.60;35.30;;;;;;684803;28;1582;-81
2022/01/20 01:48:08;;;;;;;;;;;20.70;35.40;;;;;;684508;28;1359;-81
2022/01/20 01:48:29;;;;;;;;;;;20.70;35.30;;;;;;684844;28;1268;-82
2022/01/20 01:48:49;;;;;;;;;;;20.70;35.40;;;;;;681738;28;1412;-80
2022/01/20 01:49:10;;;;;;;;;;;20.60;35.40;;;;;;682007;28;1300;-80
2022/01/20 01:49:31;;;;;;;;;;;20.70;35.50;;;;;;682327;28;1192;-82
2022/01/20 01:49:51;;;;;;;;;;;20.70;35.40;;;;;;679537;29;1350;-82
2022/01/20 01:50:12;;;;;;;;;;;20.70;35.40;;;;;;679872;28;1390;-82
2022/01/20 01:50:32;;;;;;;;;;;20.70;35.50;;;;;;681137;28;1198;-82
2022/01/20 01:50:54;;;;;;;;;;;20.70;35.40;;;;;;680158;28;1460;-81
2022/01/20 01:51:15;;;;;;;;;;;20.70;35.40;;;;;;680447;28;1446;-83
2022/01/20 01:51:36;;;;;;;;;;;20.60;35.40;;;;;;681350;28;1442;-82
2022/01/20 01:51:56;;;;;;;;;;;20.70;35.40;;;;;;682712;28;1202;-83
2022/01/20 01:52:17;;;;;;;;;;;20.60;35.40;;;;;;682857;28;1537;-81
2022/01/20 01:52:37;;;;;;;;;;;20.70;35.40;;;;;;683404;28;1227;-80
2022/01/20 01:53:00;;;;;;;;;;;20.60;35.30;;;;;;684280;28;1361;-80
2022/01/20 01:53:21;;;;;;;;;;;20.70;35.40;;;;;;684898;28;1287;-81
2022/01/20 01:53:42;;;;;;;;;;;20.60;35.30;;;;;;682137;28;1467;-81
2022/01/20 01:54:03;;;;;;;;;;;20.60;35.30;;;;;;679367;29;1292;-79
2022/01/20 01:54:24;;;;;;;;;;;20.60;35.40;;;;;;679276;29;1349;-82
2022/01/20 01:54:44;;;;;;;;;;;20.60;35.40;;;;;;679704;28;1453;-80
2022/01/20 01:55:05;;;;;;;;;;;20.70;35.50;;;;;;679669;28;1622;-81
2022/01/20 01:55:26;;;;;;;;;;;20.60;35.40;;;;;;680008;29;1246;-82
2022/01/20 01:55:46;;;;;;;;;;;20.60;35.30;;;;;;679966;28;1457;-82
2022/01/20 01:56:07;;;;;;;;;;;20.70;35.40;;;;;;679765;28;1358;-81
2022/01/20 01:56:28;;;;;;;;;;;20.60;35.40;;;;;;681666;28;1372;-80
2022/01/20 01:56:49;;;;;;;;;;;20.60;35.30;;;;;;682464;28;1930;-83
2022/01/20 01:57:12;;;;;;;;;;;20.70;35.40;;;;;;679752;28;1311;-80
2022/01/20 01:57:32;;;;;;;;;;;20.60;35.30;;;;;;679626;29;1435;-82
2022/01/20 01:57:53;;;;;;;;;;;20.60;35.30;;;;;;680106;28;1674;-82
2022/01/20 01:58:13;;;;;;;;;;;20.60;35.30;;;;;;681970;28;1353;-81
2022/01/20 01:58:34;;;;;;;;;;;20.60;35.40;;;;;;679869;29;1313;-79
2022/01/20 01:58:55;;;;;;;;;;;20.60;35.30;;;;;;679808;29;1654;-79
2022/01/20 01:59:15;;;;;;;;;;;20.70;35.40;;;;;;679478;28;1368;-84
2022/01/20 01:59:36;;;;;;;;;;;20.60;35.40;;;;;;683118;28;1177;-83
2022/01/20 01:59:56;;;;;;;;;;;20.60;35.30;;;;;;682761;28;1338;-82
2022/01/20 02:00:17;;;;;;;;;;;20.60;35.30;;;;;;683110;28;1339;-84
2022/01/20 02:00:40;;;;;;;;;;;20.60;35.30;;;;;;683742;28;1168;-83
2022/01/20 02:01:01;;;;;;;;;;;20.60;35.30;;;;;;683195;28;1245;-81
2022/01/20 02:01:22;;;;;;;;;;;20.60;35.30;;;;;;685978;28;1184;-81
2022/01/20 02:01:42;;;;;;;;;;;20.60;35.40;;;;;;683034;28;1280;-79
2022/01/20 02:02:03;;;;;;;;;;;20.70;35.50;;;;;;682787;28;1248;-83
2022/01/20 02:02:24;;;;;;;;;;;20.60;35.30;;;;;;683176;28;1426;-81
2022/01/20 02:02:45;;;;;;;;;;;20.60;35.30;;;;;;682084;28;1532;-82
2022/01/20 02:03:05;;;;;;;;;;;20.60;35.40;;;;;;683177;28;1259;-82
2022/01/20 02:03:28;;;;;;;;;;;20.70;35.40;;;;;;684012;28;1217;-82
2022/01/20 02:03:58;;;;;;;;;;;20.60;35.30;;;;;;685695;28;1482;-82
2022/01/20 02:04:21;;;;;;;;;;;20.60;35.40;;;;;;685515;28;1391;-80
2022/01/20 02:04:42;;;;;;;;;;;20.60;35.30;;;;;;683649;28;1165;-80
2022/01/20 02:05:04;;;;;;;;;;;20.60;35.30;;;;;;683394;28;1335;-80
2022/01/20 02:05:25;;;;;;;;;;;20.60;35.30;;;;;;682419;28;1476;-83
2022/01/20 02:06:59;;;;;;;;;;;20.60;35.40;;;;;;682640;28;1288;-82
2022/01/20 02:07:49;;;;;;;;;;;20.60;35.40;;;;;;682460;28;1139;-84
2022/01/20 02:18:55;;;;;;;;;;;20.60;35.80;;;;;;669003;29;1333;-82
2022/01/20 02:19:17;;;;;;;;;;;20.60;35.80;;;;;;673388;29;1382;-81
2022/01/20 02:19:43;;;;;;;;;;;20.60;35.80;;;;;;676820;29;1338;-82
2022/01/20 02:20:12;;;;;;;;;;;20.60;35.80;;;;;;673615;29;1493;-82
2022/01/20 02:20:33;;;;;;;;;;;20.60;35.80;;;;;;673778;29;1242;-81
2022/01/20 02:20:54;;;;;;;;;;;20.60;35.80;;;;;;674040;29;1298;-81
2022/01/20 02:21:14;;;;;;;;;;;20.60;35.80;;;;;;673703;29;1313;-79
2022/01/20 02:21:36;;;;;;;;;;;20.70;35.90;;;;;;674203;29;1191;-81
2022/01/20 02:22:02;;;;;;;;;;;20.70;35.90;;;;;;675768;29;1466;-82
2022/01/20 02:22:23;;;;;;;;;;;20.60;35.80;;;;;;676291;29;1444;-81
2022/01/20 02:22:44;;;;;;;;;;;20.60;35.80;;;;;;675944;29;1231;-81
2022/01/20 02:23:04;;;;;;;;;;;20.70;35.90;;;;;;677117;29;1222;-81
2022/01/20 02:23:26;;;;;;;;;;;20.60;35.80;;;;;;675887;29;1176;-81
2022/01/20 02:23:48;;;;;;;;;;;20.60;35.90;;;;;;676469;29;1254;-82
2022/01/20 02:24:08;;;;;;;;;;;20.60;35.80;;;;;;676601;29;1203;-82
2022/01/20 02:24:30;;;;;;;;;;;20.60;35.80;;;;;;677009;29;1476;-83
2022/01/20 02:24:51;;;;;;;;;;;20.70;35.90;;;;;;675746;29;1353;-81
2022/01/20 02:25:25;;;;;;;;;;;20.60;35.80;;;;;;676883;29;1236;-82
2022/01/20 02:25:46;;;;;;;;;;;20.70;35.80;;;;;;676394;29;1330;-81
2022/01/20 02:26:09;;;;;;;;;;;20.70;35.80;;;;;;676580;29;1257;-81
2022/01/20 02:26:30;;;;;;;;;;;20.70;35.90;;;;;;675440;29;1435;-81
2022/01/20 02:26:50;;;;;;;;;;;20.70;35.80;;;;;;675690;29;1607;-81
2022/01/20 02:27:11;;;;;;;;;;;20.70;35.80;;;;;;675496;29;1528;-83
2022/01/20 02:27:32;;;;;;;;;;;20.70;35.90;;;;;;675425;29;1265;-80
2022/01/20 02:27:53;;;;;;;;;;;20.70;35.80;;;;;;676311;29;1386;-83
2022/01/20 02:28:14;;;;;;;;;;;20.70;35.80;;;;;;675662;29;1552;-81
2022/01/20 02:28:34;;;;;;;;;;;20.70;35.80;;;;;;675436;29;1282;-79
2022/01/20 02:28:55;;;;;;;;;;;20.70;35.80;;;;;;675549;29;1209;-83
2022/01/20 02:29:16;;;;;;;;;;;20.70;35.80;;;;;;675518;29;1428;-83
2022/01/20 02:29:36;;;;;;;;;;;20.70;35.80;;;;;;675589;29;1472;-83
2022/01/20 02:29:57;;;;;;;;;;;20.70;35.80;;;;;;675417;29;1683;-81
2022/01/20 02:30:18;;;;;;;;;;;20.80;35.80;;;;;;675329;29;1272;-80
2022/01/20 02:30:40;;;;;;;;;;;20.80;35.80;;;;;;675727;29;1360;-81
2022/01/20 02:31:00;;;;;;;;;;;20.80;35.80;;;;;;675357;29;1219;-82
2022/01/20 02:31:21;;;;;;;;;;;20.80;36.90;;;;;;675914;29;1252;-81
2022/01/20 02:31:41;;;;;;;;;;;20.80;35.70;;;;;;675183;29;1440;-83
2022/01/20 02:32:02;;;;;;;;;;;20.80;35.70;;;;;;675673;29;1226;-81
2022/01/20 02:32:28;;;;;;;;;;;20.80;35.80;;;;;;675638;29;1391;-82
2022/01/20 02:32:56;;;;;;;;;;;20.80;35.70;;;;;;672107;29;1326;-81
2022/01/20 02:33:18;;;;;;;;;;;20.80;35.70;;;;;;672620;29;1510;-83
2022/01/20 02:33:39;;;;;;;;;;;20.80;35.70;;;;;;672465;29;1481;-82
2022/01/20 02:34:00;;;;;;;;;;;20.80;35.70;;;;;;672401;29;1350;-82
2022/01/20 02:34:22;;;;;;;;;;;20.80;35.70;;;;;;672725;29;1424;-82
2022/01/20 02:34:42;;;;;;;;;;;20.80;35.70;;;;;;674080;29;1369;-82
2022/01/20 02:35:07;;;;;;;;;;;20.80;35.70;;;;;;675195;29;1310;-82
2022/01/20 02:35:29;;;;;;;;;;;20.70;35.60;;;;;;675276;29;1226;-82
2022/01/20 02:35:50;;;;;;;;;;;20.80;35.70;;;;;;675498;29;1421;-82
2022/01/20 02:36:15;;;;;;;;;;;20.80;35.60;;;;;;675495;29;1246;-82
2022/01/20 02:36:37;;;;;;;;;;;20.80;35.70;;;;;;674938;29;1280;-80
2022/01/20 02:36:59;;;;;;;;;;;20.80;35.60;;;;;;675048;29;1943;-82
2022/01/20 02:37:20;;;;;;;;;;;20.80;35.60;;;;;;675331;29;1265;-81
2022/01/20 02:37:43;;;;;;;;;;;20.80;35.60;;;;;;675451;29;1383;-82
2022/01/20 02:38:13;;;;;;;;;;;20.80;35.60;;;;;;672746;29;1327;-83
2022/01/20 02:38:41;;;;;;;;;;;20.80;35.60;;;;;;672815;29;1223;-83
2022/01/20 02:39:11;;;;;;;;;;;20.80;35.50;;;;;;672954;29;1182;-83
2022/01/20 02:40:33;;;;;;;;;;;20.80;35.70;;;;;;673769;29;1227;-80
2022/01/20 02:44:54;;;;;;;;;;;20.80;35.50;;;;;;676584;29;1222;-82
2022/01/20 02:45:15;;;;;;;;;;;20.80;35.50;;;;;;675038;29;1568;-83
2022/01/20 02:45:36;;;;;;;;;;;20.80;35.50;;;;;;675705;29;1234;-83
2022/01/20 02:45:56;;;;;;;;;;;20.80;35.50;;;;;;675060;29;1422;-83
2022/01/20 02:46:17;;;;;;;;;;;20.80;35.50;;;;;;675020;29;1346;-83
2022/01/20 02:46:38;;;;;;;;;;;20.80;35.50;;;;;;678442;29;1208;-84
2022/01/20 02:46:59;;;;;;;;;;;20.80;35.50;;;;;;678170;29;1543;-84
2022/01/20 02:47:21;;;;;;;;;;;20.80;35.40;;;;;;677837;29;1269;-79
2022/01/20 02:47:41;;;;;;;;;;;20.80;35.50;;;;;;677852;29;1134;-82
2022/01/20 02:48:02;;;;;;;;;;;20.80;35.50;;;;;;678055;29;1404;-82
2022/01/20 02:48:23;;;;;;;;;;;20.80;35.50;;;;;;677821;29;1300;-81
2022/01/20 02:48:43;;;;;;;;;;;20.70;35.40;;;;;;678089;29;1204;-83
2022/01/20 02:49:04;;;;;;;;;;;20.70;35.40;;;;;;678575;28;1428;-79
2022/01/20 02:49:25;;;;;;;;;;;20.70;35.40;;;;;;680690;28;1316;-81
2022/01/20 02:49:46;;;;;;;;;;;20.80;35.40;;;;;;681074;28;1321;-84
2022/01/20 02:50:06;;;;;;;;;;;20.70;35.40;;;;;;682616;28;1534;-82
2022/01/20 02:50:27;;;;;;;;;;;20.70;35.40;;;;;;682965;28;1184;-84
2022/01/20 02:50:48;;;;;;;;;;;20.70;35.50;;;;;;683260;28;1255;-83
2022/01/20 02:51:09;;;;;;;;;;;20.70;35.40;;;;;;682823;28;1616;-79
2022/01/20 02:51:29;;;;;;;;;;;20.70;35.40;;;;;;683040;28;1504;-83
2022/01/20 02:51:54;;;;;;;;;;;20.70;35.50;;;;;;683505;28;1393;-83
2022/01/20 02:52:15;;;;;;;;;;;20.70;35.50;;;;;;682623;28;1215;-82
2022/01/20 02:52:36;;;;;;;;;;;20.60;35.40;;;;;;683037;28;1192;-83
2022/01/20 02:52:56;;;;;;;;;;;20.70;35.50;;;;;;682931;28;1514;-80
2022/01/20 02:53:17;;;;;;;;;;;20.70;35.60;;;;;;683037;28;1346;-80
2022/01/20 02:53:37;;;;;;;;;;;20.70;35.50;;;;;;682892;28;1171;-82
2022/01/20 02:53:58;;;;;;;;;;;20.60;35.40;;;;;;679946;28;1476;-83
2022/01/20 02:54:19;;;;;;;;;;;20.70;35.40;;;;;;680806;28;1248;-81
2022/01/20 02:54:40;;;;;;;;;;;20.70;35.50;;;;;;683137;28;1212;-81
2022/01/20 02:55:01;;;;;;;;;;;20.70;35.50;;;;;;682738;28;1534;-82
2022/01/20 02:55:21;;;;;;;;;;;20.60;35.40;;;;;;682794;28;1316;-83
2022/01/20 02:55:42;;;;;;;;;;;20.60;35.40;;;;;;683317;28;1256;-82
2022/01/20 02:56:03;;;;;;;;;;;20.60;35.50;;;;;;682659;28;1502;-82
2022/01/20 02:56:23;;;;;;;;;;;20.60;35.50;;;;;;682362;28;1267;-82
2022/01/20 02:56:44;;;;;;;;;;;20.60;35.40;;;;;;682837;28;1906;-83
2022/01/20 02:57:05;;;;;;;;;;;20.60;35.40;;;;;;682537;28;1474;-82
2022/01/20 02:57:25;;;;;;;;;;;20.60;35.40;;;;;;682522;28;1328;-81
2022/01/20 02:57:46;;;;;;;;;;;20.70;35.50;;;;;;683339;28;1216;-81
2022/01/20 02:58:07;;;;;;;;;;;20.60;35.50;;;;;;684490;28;1379;-81
2022/01/20 02:58:28;;;;;;;;;;;20.60;35.50;;;;;;684966;28;1164;-83
2022/01/20 02:58:49;;;;;;;;;;;20.60;35.40;;;;;;685655;28;1184;-81
2022/01/20 02:59:09;;;;;;;;;;;20.60;35.60;;;;;;685203;28;1645;-83
2022/01/20 02:59:30;;;;;;;;;;;20.60;35.50;;;;;;685493;28;1382;-83
2022/01/20 02:59:51;;;;;;;;;;;20.60;35.60;;;;;;685204;28;1165;-83
2022/01/20 03:00:12;;;;;;;;;;;20.60;35.50;;;;;;685406;28;1644;-82
2022/01/20 03:00:34;;;;;;;;;;;20.60;35.60;;;;;;685197;28;1223;-81
2022/01/20 03:00:54;;;;;;;;;;;20.60;35.60;;;;;;685699;28;1161;-82
2022/01/20 03:01:15;;;;;;;;;;;20.60;35.60;;;;;;685332;28;1499;-82
2022/01/20 03:01:36;;;;;;;;;;;20.60;35.60;;;;;;685135;28;1229;-82
2022/01/20 03:01:56;;;;;;;;;;;20.60;35.70;;;;;;685579;28;1275;-78
2022/01/20 03:02:17;;;;;;;;;;;20.60;35.60;;;;;;684995;28;1284;-81
2022/01/20 03:02:38;;;;;;;;;;;20.70;35.60;;;;;;685700;28;1236;-82
2022/01/20 03:02:58;;;;;;;;;;;20.60;35.60;;;;;;685712;28;1181;-82
2022/01/20 03:03:19;;;;;;;;;;;20.60;35.60;;;;;;685194;28;1303;-82
2022/01/20 03:03:40;;;;;;;;;;;20.60;35.50;;;;;;685779;28;1340;-82